Huesca/Pirineos Airport


Codes: LEHC/HSK
Name: Huesca/Pirineos Airport
City: Monflorite/Alcala del Obispo
Country: Spain
Elevation: 1768 ft.
Wikipedia:

Photos at Huesca/Pirineos Airport


   Photos courtesy of SpottingLog. You can add your own sightings and photos by signing up for a free trial today.



No photos found.

Weather at Huesca/Pirineos Airport


Time (UTC)DescriptionTempratureWindCloud coverageVisibilityPressureHumidity
16-Jun-2024 09:00Few Clouds19°C7 mph, SE20%10000m1015hPa68%
16-Jun-2024 12:00Few Clouds21°C7 mph, SE21%10000m1014hPa55%
16-Jun-2024 15:00Few Clouds26°C7 mph, S13%10000m1012hPa36%
16-Jun-2024 18:00Clear Sky29°C7 mph, SE6%10000m1009hPa18%
16-Jun-2024 21:00Broken Clouds19°C11 mph, E58%10000m1013hPa59%
17-Jun-2024 00:00Scattered Clouds18°C9 mph, E39%10000m1012hPa65%
17-Jun-2024 03:00Scattered Clouds17°C9 mph, E30%10000m1012hPa69%
17-Jun-2024 06:00Broken Clouds18°C9 mph, SE65%10000m1013hPa65%
17-Jun-2024 09:00Scattered Clouds24°C9 mph, SE34%10000m1013hPa46%
17-Jun-2024 12:00Few Clouds30°C9 mph, SE20%10000m1011hPa29%
17-Jun-2024 15:00Scattered Clouds33°C9 mph, SE39%10000m1008hPa22%
17-Jun-2024 18:00Broken Clouds27°C18 mph, SE58%10000m1009hPa39%
17-Jun-2024 21:00Broken Clouds22°C13 mph, E82%10000m1011hPa54%
18-Jun-2024 00:00Broken Clouds20°C11 mph, E56%10000m1012hPa56%
18-Jun-2024 03:00Light Rain19°C11 mph, E73%10000m1012hPa68%
18-Jun-2024 06:00Light Rain20°C7 mph, E87%10000m1013hPa65%
18-Jun-2024 09:00Overcast Clouds26°C13 mph, SE100%10000m1013hPa37%
18-Jun-2024 12:00Overcast Clouds30°C13 mph, SE96%10000m1012hPa28%
18-Jun-2024 15:00Overcast Clouds32°C13 mph, SE94%10000m1010hPa25%
18-Jun-2024 18:00Broken Clouds29°C13 mph, SE57%10000m1010hPa31%
18-Jun-2024 21:00Broken Clouds22°C9 mph, E59%10000m1012hPa50%
19-Jun-2024 00:00Broken Clouds21°C9 mph, SE82%10000m1014hPa60%
19-Jun-2024 03:00Clear Sky18°C4 mph, E6%10000m1014hPa74%
19-Jun-2024 06:00Clear Sky20°C2 mph, SE3%10000m1015hPa67%
19-Jun-2024 09:00Scattered Clouds26°C4 mph, SE50%10000m1014hPa41%
19-Jun-2024 12:00Broken Clouds31°C13 mph, SE72%10000m1014hPa29%
19-Jun-2024 15:00Broken Clouds32°C16 mph, SE67%10000m1012hPa25%
19-Jun-2024 18:00Light Rain28°C16 mph, S76%10000m1013hPa33%
19-Jun-2024 21:00Broken Clouds22°C11 mph, E82%10000m1013hPa51%
20-Jun-2024 00:00Overcast Clouds22°C11 mph, SE91%10000m1013hPa52%
20-Jun-2024 03:00Overcast Clouds20°C4 mph, NE87%10000m1012hPa64%
20-Jun-2024 06:00Overcast Clouds22°C7 mph, E95%10000m1012hPa63%
20-Jun-2024 09:00Overcast Clouds24°C9 mph, SE98%10000m1013hPa57%
20-Jun-2024 12:00Broken Clouds29°C7 mph, S77%10000m1012hPa36%
20-Jun-2024 15:00Few Clouds31°C11 mph, SW21%10000m1011hPa19%
20-Jun-2024 18:00Few Clouds29°C13 mph, W15%10000m1011hPa16%
20-Jun-2024 21:00Broken Clouds23°C9 mph, W69%10000m1014hPa29%
21-Jun-2024 00:00Broken Clouds19°C7 mph, NW65%10000m1016hPa46%
21-Jun-2024 03:00Clear Sky17°C7 mph, NW7%10000m1016hPa57%
21-Jun-2024 06:00Clear Sky18°C11 mph, NW4%10000m1018hPa56%